EJU567E LFML-LFBD
Flight info
| Callsign | EJU567E |
|---|---|
| Flight time | 0h 53m |
| Altitude | 34000 |
| Route | FJR DCT FISTO DCT MIRBA |
| Aircraft | A320/M-SDE2E3FGHIJ1RWXYZ/LB1 |
Departure
| Time | 2026-05-04 08:08 |
|---|---|
| Airport | Marseille Provence Airport (LFML) |
Arrival
| Time | 2026-05-04 09:01 |
|---|---|
| Airport | Bordeaux–Mérignac Airport (LFBD) |
| Time | Latitude | Longitude | Altitude | Speed | Heading |
|---|---|---|---|---|---|
| 2026-05-04 07:33 | 43.43862 | 5.22308 | 50 ft | 0 kts | 73° |
| 2026-05-04 07:55 | 43.43857 | 5.22283 | 50 ft | 4 kts | 78° |
| 2026-05-04 07:55 | 43.43853 | 5.22246 | 45 ft | 4 kts | 90° |
| 2026-05-04 07:56 | 43.43856 | 5.22211 | 44 ft | 4 kts | 121° |
| 2026-05-04 07:56 | 43.43868 | 5.22195 | 48 ft | 1 kts | 161° |
| 2026-05-04 07:56 | 43.43871 | 5.22194 | 42 ft | 0 kts | 161° |
| 2026-05-04 07:57 | 43.43871 | 5.22193 | 42 ft | 0 kts | 161° |
| 2026-05-04 08:00 | 43.43843 | 5.22207 | 49 ft | 8 kts | 161° |
| 2026-05-04 08:00 | 43.43799 | 5.22227 | 50 ft | 6 kts | 164° |
| 2026-05-04 08:00 | 43.43748 | 5.22218 | 49 ft | 10 kts | 213° |
| 2026-05-04 08:02 | 43.43937 | 5.21581 | 37 ft | 13 kts | 222° |
| 2026-05-04 08:02 | 43.43938 | 5.21462 | 29 ft | 14 kts | 307° |
| 2026-05-04 08:02 | 43.43998 | 5.21377 | 27 ft | 11 kts | 314° |
| 2026-05-04 08:03 | 43.44049 | 5.21304 | 27 ft | 9 kts | 314° |
| 2026-05-04 08:03 | 43.44116 | 5.21208 | 24 ft | 17 kts | 313° |
| 2026-05-04 08:03 | 43.44193 | 5.21097 | 22 ft | 15 kts | 314° |
| 2026-05-04 08:03 | 43.44264 | 5.20988 | 20 ft | 14 kts | 307° |
| 2026-05-04 08:04 | 43.44311 | 5.20882 | 22 ft | 12 kts | 300° |
| 2026-05-04 08:04 | 43.44360 | 5.20788 | 20 ft | 12 kts | 314° |
| 2026-05-04 08:04 | 43.44412 | 5.20705 | 19 ft | 10 kts | 285° |
| 2026-05-04 08:04 | 43.44390 | 5.20676 | 21 ft | 0 kts | 184° |
| 2026-05-04 08:05 | 43.44388 | 5.20676 | 22 ft | 5 kts | 182° |
| 2026-05-04 08:05 | 43.44394 | 5.20716 | 20 ft | 11 kts | 18° |
| 2026-05-04 08:05 | 43.44467 | 5.20643 | 19 ft | 13 kts | 315° |
| 2026-05-04 08:05 | 43.44526 | 5.20560 | 18 ft | 11 kts | 314° |
| 2026-05-04 08:06 | 43.44574 | 5.20493 | 18 ft | 9 kts | 314° |
| 2026-05-04 08:06 | 43.44611 | 5.20441 | 18 ft | 8 kts | 314° |
| 2026-05-04 08:06 | 43.44653 | 5.20379 | 17 ft | 10 kts | 311° |
| 2026-05-04 08:06 | 43.44667 | 5.20288 | 17 ft | 11 kts | 243° |
| 2026-05-04 08:08 | 43.41718 | 5.23808 | 1292 ft | 171 kts | 146° |
| 2026-05-04 08:08 | 43.40646 | 5.24706 | 1711 ft | 186 kts | 146° |
| 2026-05-04 08:10 | 43.31404 | 5.24871 | 7217 ft | 257 kts | 234° |
| 2026-05-04 08:11 | 43.30416 | 5.22797 | 8072 ft | 260 kts | 234° |
| 2026-05-04 08:11 | 43.28405 | 5.18590 | 9820 ft | 267 kts | 233° |
| 2026-05-04 08:11 | 43.27363 | 5.16453 | 10422 ft | 281 kts | 233° |
| 2026-05-04 08:12 | 43.26222 | 5.14134 | 10723 ft | 303 kts | 233° |
| 2026-05-04 08:12 | 43.25025 | 5.11712 | 11445 ft | 307 kts | 233° |
| 2026-05-04 08:12 | 43.23811 | 5.09260 | 12136 ft | 313 kts | 233° |
| 2026-05-04 08:12 | 43.22602 | 5.06791 | 12811 ft | 321 kts | 237° |
| 2026-05-04 08:13 | 43.21725 | 5.03942 | 13567 ft | 328 kts | 252° |
| 2026-05-04 08:13 | 43.21463 | 5.00795 | 14244 ft | 338 kts | 268° |
| 2026-05-04 08:13 | 43.21899 | 4.97584 | 15000 ft | 347 kts | 283° |
| 2026-05-04 08:13 | 43.22701 | 4.94487 | 15725 ft | 350 kts | 284° |
| 2026-05-04 08:14 | 43.23532 | 4.91316 | 16482 ft | 353 kts | 286° |
| 2026-05-04 08:14 | 43.24365 | 4.88134 | 17129 ft | 356 kts | 286° |
| 2026-05-04 08:14 | 43.25201 | 4.84931 | 17808 ft | 358 kts | 284° |
| 2026-05-04 08:16 | 43.32487 | 4.62492 | 21795 ft | 379 kts | 294° |
| 2026-05-04 08:16 | 43.33742 | 4.59342 | 22328 ft | 381 kts | 294° |
| 2026-05-04 08:16 | 43.35023 | 4.56120 | 22807 ft | 385 kts | 294° |
| 2026-05-04 08:17 | 43.36317 | 4.52857 | 23306 ft | 388 kts | 294° |
| 2026-05-04 08:17 | 43.37602 | 4.49620 | 23746 ft | 391 kts | 294° |
| 2026-05-04 08:17 | 43.38909 | 4.46325 | 24171 ft | 393 kts | 294° |
| 2026-05-04 08:17 | 43.40214 | 4.43006 | 24592 ft | 396 kts | 294° |
| 2026-05-04 08:19 | 43.49474 | 4.19172 | 27375 ft | 411 kts | 293° |
| 2026-05-04 08:19 | 43.50821 | 4.15684 | 27791 ft | 413 kts | 292° |
| 2026-05-04 08:20 | 43.51718 | 4.13358 | 28079 ft | 415 kts | 292° |
| 2026-05-04 08:20 | 43.53076 | 4.09832 | 28518 ft | 418 kts | 292° |
| 2026-05-04 08:20 | 43.54887 | 4.05123 | 29057 ft | 421 kts | 292° |
| 2026-05-04 08:20 | 43.56264 | 4.01540 | 29445 ft | 424 kts | 292° |
| 2026-05-04 08:21 | 43.57185 | 3.99144 | 29632 ft | 426 kts | 292° |
| 2026-05-04 08:21 | 43.58993 | 3.94284 | 30046 ft | 429 kts | 290° |
| 2026-05-04 08:21 | 43.59870 | 3.91774 | 30229 ft | 430 kts | 290° |
| 2026-05-04 08:21 | 43.61134 | 3.88027 | 30534 ft | 431 kts | 289° |
| 2026-05-04 08:22 | 43.62362 | 3.84295 | 30845 ft | 432 kts | 289° |
| 2026-05-04 08:22 | 43.63605 | 3.80489 | 31171 ft | 433 kts | 288° |
| 2026-05-04 08:24 | 43.72318 | 3.54351 | 33966 ft | 422 kts | 288° |
| 2026-05-04 08:24 | 43.73540 | 3.50682 | 34025 ft | 415 kts | 288° |
| 2026-05-04 08:24 | 43.75923 | 3.43551 | 34030 ft | 406 kts | 288° |
| 2026-05-04 08:25 | 43.78269 | 3.36457 | 34058 ft | 404 kts | 288° |
| 2026-05-04 08:25 | 43.80601 | 3.29347 | 34028 ft | 406 kts | 288° |
| 2026-05-04 08:27 | 43.89931 | 3.00931 | 34021 ft | 406 kts | 287° |
| 2026-05-04 08:28 | 43.92259 | 2.93766 | 34008 ft | 406 kts | 287° |
| 2026-05-04 08:28 | 43.94575 | 2.86634 | 33992 ft | 406 kts | 288° |
| 2026-05-04 08:29 | 43.96890 | 2.79503 | 33997 ft | 406 kts | 287° |
| 2026-05-04 08:31 | 44.06134 | 2.50783 | 33983 ft | 410 kts | 287° |
| 2026-05-04 08:33 | 44.15386 | 2.21734 | 33999 ft | 412 kts | 287° |
| 2026-05-04 08:35 | 44.24586 | 1.92507 | 33973 ft | 412 kts | 287° |
| 2026-05-04 08:35 | 44.26889 | 1.85154 | 33980 ft | 413 kts | 287° |
| 2026-05-04 08:37 | 44.33717 | 1.63189 | 33081 ft | 406 kts | 287° |
| 2026-05-04 08:37 | 44.34839 | 1.59574 | 32817 ft | 404 kts | 287° |
| 2026-05-04 08:37 | 44.35951 | 1.55979 | 32557 ft | 402 kts | 287° |
| 2026-05-04 08:38 | 44.37059 | 1.52394 | 32321 ft | 401 kts | 287° |
| 2026-05-04 08:38 | 44.38149 | 1.48852 | 32055 ft | 400 kts | 287° |
| 2026-05-04 08:38 | 44.39241 | 1.45289 | 31803 ft | 398 kts | 287° |
| 2026-05-04 08:40 | 44.46638 | 1.21133 | 28818 ft | 372 kts | 287° |
| 2026-05-04 08:40 | 44.47638 | 1.17808 | 28439 ft | 367 kts | 286° |
| 2026-05-04 08:40 | 44.48607 | 1.14530 | 28057 ft | 362 kts | 286° |
| 2026-05-04 08:41 | 44.49555 | 1.11286 | 27632 ft | 359 kts | 286° |
| 2026-05-04 08:41 | 44.50496 | 1.08063 | 27227 ft | 355 kts | 286° |
| 2026-05-04 08:41 | 44.51433 | 1.04872 | 26828 ft | 352 kts | 287° |
| 2026-05-04 08:41 | 44.52353 | 1.01749 | 26423 ft | 349 kts | 287° |
| 2026-05-04 08:42 | 44.53277 | 0.98616 | 26020 ft | 346 kts | 287° |
| 2026-05-04 08:42 | 44.54193 | 0.95503 | 25599 ft | 344 kts | 287° |
| 2026-05-04 08:42 | 44.55107 | 0.92385 | 25171 ft | 343 kts | 287° |
| 2026-05-04 08:42 | 44.56009 | 0.89304 | 24753 ft | 341 kts | 287° |
| 2026-05-04 08:43 | 44.56911 | 0.86221 | 24325 ft | 340 kts | 287° |
| 2026-05-04 08:43 | 44.57794 | 0.83194 | 23895 ft | 339 kts | 287° |
| 2026-05-04 08:43 | 44.58686 | 0.80127 | 23441 ft | 339 kts | 287° |
| 2026-05-04 08:43 | 44.59580 | 0.77053 | 22969 ft | 337 kts | 287° |
| 2026-05-04 08:44 | 44.60458 | 0.74045 | 22564 ft | 335 kts | 287° |
| 2026-05-04 08:44 | 44.61338 | 0.71024 | 22141 ft | 333 kts | 287° |
| 2026-05-04 08:46 | 44.67331 | 0.50320 | 19333 ft | 324 kts | 287° |
| 2026-05-04 08:46 | 44.68180 | 0.47376 | 18940 ft | 324 kts | 287° |
| 2026-05-04 08:46 | 44.69026 | 0.44438 | 18547 ft | 323 kts | 287° |
| 2026-05-04 08:46 | 44.69866 | 0.41509 | 18138 ft | 323 kts | 287° |
| 2026-05-04 08:47 | 44.70705 | 0.38574 | 17726 ft | 322 kts | 287° |
| 2026-05-04 08:47 | 44.71539 | 0.35660 | 17344 ft | 321 kts | 288° |
| 2026-05-04 08:47 | 44.72362 | 0.32783 | 16959 ft | 320 kts | 288° |
| 2026-05-04 08:47 | 44.73232 | 0.29904 | 16676 ft | 320 kts | 290° |
| 2026-05-04 08:48 | 44.74147 | 0.27059 | 16403 ft | 319 kts | 290° |
| 2026-05-04 08:48 | 44.75082 | 0.24228 | 16130 ft | 318 kts | 291° |
| 2026-05-04 08:48 | 44.76005 | 0.21441 | 15861 ft | 316 kts | 291° |
| 2026-05-04 08:48 | 44.76928 | 0.18634 | 15586 ft | 314 kts | 291° |
| 2026-05-04 08:49 | 44.77839 | 0.15835 | 15306 ft | 313 kts | 291° |
| 2026-05-04 08:50 | 44.83141 | -0.00670 | 13712 ft | 305 kts | 291° |
| 2026-05-04 08:50 | 44.84008 | -0.03387 | 13426 ft | 303 kts | 291° |
| 2026-05-04 08:51 | 44.84871 | -0.06093 | 13155 ft | 302 kts | 291° |
| 2026-05-04 08:51 | 44.85730 | -0.08797 | 12894 ft | 301 kts | 291° |
| 2026-05-04 08:51 | 44.86586 | -0.11489 | 12654 ft | 300 kts | 291° |
| 2026-05-04 08:51 | 44.87437 | -0.14168 | 12388 ft | 299 kts | 291° |
| 2026-05-04 08:52 | 44.88326 | -0.16783 | 11727 ft | 306 kts | 299° |
| 2026-05-04 08:52 | 44.89733 | -0.19161 | 10888 ft | 313 kts | 317° |
| 2026-05-04 08:52 | 44.91535 | -0.20834 | 10083 ft | 316 kts | 332° |
| 2026-05-04 08:52 | 44.93483 | -0.22206 | 9587 ft | 306 kts | 331° |
| 2026-05-04 08:53 | 44.95352 | -0.23530 | 9108 ft | 296 kts | 331° |
| 2026-05-04 08:54 | 45.04850 | -0.35758 | 4898 ft | 265 kts | 271° |
| 2026-05-04 08:55 | 45.04672 | -0.38317 | 4271 ft | 260 kts | 255° |
| 2026-05-04 08:55 | 45.04019 | -0.40653 | 3790 ft | 250 kts | 239° |
| 2026-05-04 08:55 | 45.03025 | -0.42559 | 3642 ft | 230 kts | 226° |
| 2026-05-04 08:55 | 45.01935 | -0.44129 | 3564 ft | 218 kts | 225° |
| 2026-05-04 08:57 | 44.95157 | -0.53906 | 3006 ft | 194 kts | 226° |
| 2026-05-04 09:01 | 44.84773 | -0.68814 | 425 ft | 137 kts | 227° |
| 2026-05-04 09:01 | 44.84098 | -0.69772 | 261 ft | 137 kts | 227° |
| 2026-05-04 09:01 | 44.83449 | -0.70697 | 164 ft | 125 kts | 224° |
| 2026-05-04 09:01 | 44.83028 | -0.71303 | 160 ft | 41 kts | 225° |
| 2026-05-04 09:02 | 44.82845 | -0.71562 | 163 ft | 35 kts | 225° |
| 2026-05-04 09:02 | 44.82679 | -0.71799 | 166 ft | 33 kts | 225° |
| 2026-05-04 09:02 | 44.82575 | -0.71924 | 163 ft | 15 kts | 194° |
| 2026-05-04 09:02 | 44.82498 | -0.71842 | 160 ft | 14 kts | 128° |
| 2026-05-04 09:03 | 44.82447 | -0.71737 | 162 ft | 11 kts | 111° |
| 2026-05-04 09:03 | 44.82476 | -0.71636 | 164 ft | 14 kts | 44° |
| 2026-05-04 09:03 | 44.82558 | -0.71525 | 163 ft | 20 kts | 43° |
| 2026-05-04 09:03 | 44.82669 | -0.71366 | 161 ft | 26 kts | 45° |
| 2026-05-04 09:04 | 44.82798 | -0.71185 | 157 ft | 27 kts | 44° |
| 2026-05-04 09:04 | 44.82888 | -0.71057 | 159 ft | 15 kts | 46° |
| 2026-05-04 09:04 | 44.82940 | -0.70944 | 162 ft | 12 kts | 85° |
| 2026-05-04 09:04 | 44.82921 | -0.70835 | 162 ft | 11 kts | 107° |
| 2026-05-04 09:05 | 44.82900 | -0.70741 | 162 ft | 10 kts | 107° |
| 2026-05-04 09:05 | 44.82882 | -0.70657 | 162 ft | 8 kts | 107° |
| 2026-05-04 09:05 | 44.82863 | -0.70568 | 162 ft | 13 kts | 107° |
| 2026-05-04 09:05 | 44.82832 | -0.70416 | 162 ft | 18 kts | 107° |
| 2026-05-04 09:06 | 44.82802 | -0.70281 | 162 ft | 12 kts | 107° |
| 2026-05-04 09:07 | 44.82855 | -0.69969 | 162 ft | 0 kts | 15° |